createdAt,value
2023-01-02T00:00:28.935Z,1.85
2023-01-02T00:05:31.223Z,1.98
2023-01-02T00:10:33.676Z,1.85
2023-01-02T00:15:36.182Z,1.79
2023-01-02T00:20:40.070Z,1.88
2023-01-02T00:25:42.566Z,1.88
2023-01-02T00:30:44.792Z,1.85
2023-01-02T00:35:47.054Z,1.86
2023-01-02T00:40:49.191Z,1.74
2023-01-02T00:45:51.513Z,1.32
2023-01-02T00:50:53.782Z,1.64
2023-01-02T00:55:56.314Z,1.40
2023-01-02T01:00:58.669Z,1.61
2023-01-02T01:06:07.831Z,1.52
2023-01-02T01:11:13.120Z,1.27
2023-01-02T01:16:18.340Z,1.23
2023-01-02T01:21:21.281Z,1.16
2023-01-02T01:26:24.252Z,1.01
2023-01-02T01:31:26.664Z,1.22
2023-01-02T01:36:28.854Z,1.15
2023-01-02T01:41:31.792Z,1.15
2023-01-02T01:46:45.320Z,1.37
2023-01-02T01:52:06.815Z,1.61
2023-01-02T01:57:16.300Z,1.40
2023-01-02T02:02:19.050Z,1.34
2023-01-02T02:07:21.457Z,1.24
2023-01-02T02:12:27.967Z,1.41
2023-01-02T02:17:56.515Z,1.52
2023-01-02T02:23:17.404Z,1.58
2023-01-02T02:28:55.962Z,1.65
2023-01-02T02:34:30.428Z,1.67
2023-01-02T02:39:43.637Z,1.34
2023-01-02T02:44:59.477Z,1.30
2023-01-02T02:50:30.573Z,0.99
2023-01-02T02:55:39.695Z,1.00
2023-01-02T03:00:42.046Z,0.85
2023-01-02T03:06:05.054Z,0.73
2023-01-02T03:11:07.796Z,0.86
2023-01-02T03:16:30.400Z,0.88
2023-01-02T03:21:44.836Z,0.95
2023-01-02T03:26:52.214Z,0.62
2023-01-02T03:31:56.801Z,0.82
2023-01-02T03:37:03.924Z,1.05
2023-01-02T03:42:14.593Z,1.04
2023-01-02T03:47:37.020Z,1.14
2023-01-02T03:52:39.516Z,1.03
2023-01-02T03:58:06.514Z,0.74
2023-01-02T04:03:18.030Z,0.92
2023-01-02T04:08:31.113Z,0.62
2023-01-02T04:13:38.929Z,0.87
2023-01-02T04:18:49.454Z,0.83
2023-01-02T04:24:05.747Z,1.08
2023-01-02T04:29:08.020Z,0.86
2023-01-02T04:34:14.081Z,1.20
2023-01-02T04:39:16.960Z,1.17
2023-01-02T04:44:19.266Z,0.81
2023-01-02T04:49:23.037Z,1.03
2023-01-02T04:54:25.146Z,0.88
2023-01-02T04:59:27.664Z,0.94
2023-01-02T05:04:30.066Z,0.85
2023-01-02T05:09:32.170Z,0.87
2023-01-02T05:14:34.339Z,0.60
2023-01-02T05:19:36.632Z,0.31
2023-01-02T05:24:38.805Z,0.72
2023-01-02T05:29:43.630Z,0.64
2023-01-02T05:34:45.782Z,0.63
2023-01-02T05:39:48.429Z,0.61
2023-01-02T05:44:51.477Z,0.54
2023-01-02T05:49:59.773Z,0.64
2023-01-02T05:55:02.245Z,0.49
2023-01-02T06:00:05.004Z,0.71
2023-01-02T06:05:15.076Z,0.77
2023-01-02T06:10:17.252Z,0.94
2023-01-02T06:15:19.379Z,0.89
2023-01-02T06:20:23.025Z,0.82
2023-01-02T06:25:25.379Z,0.85
2023-01-02T06:30:27.528Z,1.11
2023-01-02T06:35:29.667Z,1.06
2023-01-02T06:40:32.156Z,1.12
2023-01-02T06:45:35.233Z,1.06
2023-01-02T06:50:37.789Z,0.98
2023-01-02T06:55:59.006Z,1.38
2023-01-02T07:01:23.240Z,1.64
2023-01-02T07:06:33.855Z,1.77
2023-01-02T07:11:39.419Z,1.86
2023-01-02T07:16:41.791Z,1.98
2023-01-02T07:21:46.646Z,2.07
2023-01-02T07:26:48.865Z,2.68
2023-01-02T07:31:51.073Z,2.79
2023-01-02T07:36:53.387Z,5.03
2023-01-02T07:41:55.722Z,12.63
2023-01-02T07:47:01.975Z,18.27
2023-01-02T07:52:04.792Z,21.08
2023-01-02T07:57:07.169Z,22.07
2023-01-02T08:02:11.155Z,22.72
2023-01-02T08:07:13.359Z,22.95
2023-01-02T08:12:15.740Z,22.98
2023-01-02T08:17:17.877Z,22.35
2023-01-02T08:22:20.117Z,22.02
2023-01-02T08:27:22.293Z,21.05
2023-01-02T08:32:25.908Z,20.65
2023-01-02T08:37:28.101Z,20.78
2023-01-02T08:42:30.420Z,21.14
2023-01-02T08:47:32.624Z,21.11
2023-01-02T08:52:34.881Z,21.03
2023-01-02T08:57:36.990Z,21.15
2023-01-02T09:02:39.703Z,21.49
2023-01-02T09:07:43.459Z,21.91
2023-01-02T09:12:45.687Z,22.28
2023-01-02T09:17:47.881Z,22.62
2023-01-02T09:22:50.022Z,23.21
2023-01-02T09:27:52.560Z,23.34
2023-01-02T09:32:54.721Z,23.92
2023-01-02T09:37:56.990Z,23.91
2023-01-02T09:43:00.276Z,24.24
2023-01-02T09:48:02.951Z,24.74
2023-01-02T09:53:05.162Z,24.85
2023-01-02T09:58:22.155Z,25.09
2023-01-02T10:03:36.587Z,25.41
2023-01-02T10:08:47.486Z,25.92
2023-01-02T10:14:21.163Z,25.69
2023-01-02T10:19:29.954Z,25.83
2023-01-02T10:24:41.294Z,25.83
2023-01-02T10:30:01.207Z,25.91
2023-01-02T10:35:06.301Z,25.95
2023-01-02T10:40:09.045Z,26.42
2023-01-02T10:45:16.561Z,26.47
2023-01-02T10:50:23.219Z,25.93
2023-01-02T10:55:41.264Z,25.51
2023-01-02T11:00:43.757Z,25.19
2023-01-02T11:05:52.488Z,25.12
2023-01-02T11:10:54.674Z,24.60
2023-01-02T11:15:59.856Z,23.20
2023-01-02T11:21:05.443Z,22.69
2023-01-02T11:26:21.578Z,22.26
2023-01-02T11:31:24.331Z,21.95
2023-01-02T11:36:27.809Z,21.28
2023-01-02T11:42:08.110Z,21.04
2023-01-02T11:47:14.543Z,20.92
2023-01-02T11:52:21.523Z,21.19
2023-01-02T11:57:48.992Z,20.63
2023-01-02T12:02:54.736Z,20.29
2023-01-02T12:08:06.968Z,19.87
2023-01-02T12:13:24.105Z,20.00
2023-01-02T12:18:50.672Z,19.89
2023-01-02T12:24:30.930Z,19.83
2023-01-02T12:30:06.933Z,19.57
2023-01-02T12:35:37.446Z,19.41
2023-01-02T12:40:45.598Z,19.31
2023-01-02T12:46:03.027Z,19.29
2023-01-02T12:51:40.490Z,19.28
2023-01-02T12:56:51.882Z,19.22
2023-01-02T13:02:09.486Z,19.15
2023-01-02T13:07:33.189Z,18.97
2023-01-02T13:12:37.141Z,18.75
2023-01-02T13:17:51.779Z,18.64
2023-01-02T13:23:21.747Z,18.45
2023-01-02T13:28:24.832Z,18.26
2023-01-02T13:33:34.621Z,18.07
2023-01-02T13:38:37.016Z,17.54
2023-01-02T13:43:39.630Z,17.34
2023-01-02T13:49:30.867Z,16.88
2023-01-02T13:54:36.332Z,16.45
2023-01-02T14:00:16.433Z,15.97
2023-01-02T14:05:56.024Z,15.72
2023-01-02T14:11:20.062Z,15.40
2023-01-02T14:16:50.219Z,14.84
2023-01-02T14:21:59.048Z,14.40
2023-01-02T14:27:06.508Z,14.03
2023-01-02T14:32:37.169Z,13.70
2023-01-02T14:37:39.504Z,13.21
2023-01-02T14:43:02.035Z,12.79
2023-01-02T14:48:11.672Z,12.62
2023-01-02T14:53:19.825Z,12.58
2023-01-02T14:58:33.437Z,12.33
2023-01-02T15:04:03.514Z,11.93
2023-01-02T15:09:27.306Z,11.22
2023-01-02T15:14:31.885Z,10.82
2023-01-02T15:19:35.816Z,10.53
2023-01-02T15:24:38.679Z,10.24
2023-01-02T15:29:48.573Z,9.64
2023-01-02T15:34:51.799Z,9.24
2023-01-02T15:39:54.201Z,9.29
2023-01-02T15:45:10.245Z,9.27
2023-01-02T15:50:24.474Z,9.20
2023-01-02T15:55:30.974Z,9.26
2023-01-02T16:00:41.939Z,9.09
2023-01-02T16:05:56.392Z,9.07
2023-01-02T16:11:02.520Z,8.84
2023-01-02T16:16:16.744Z,8.63
2023-01-02T16:21:20.543Z,8.52
2023-01-02T16:26:30.876Z,8.25
2023-01-02T16:31:53.772Z,8.27
2023-01-02T16:37:24.168Z,8.33
2023-01-02T16:42:38.070Z,7.86
2023-01-02T16:47:43.269Z,7.61
2023-01-02T16:52:47.048Z,7.74
2023-01-02T16:57:53.901Z,7.67
2023-01-02T17:02:56.139Z,7.11
2023-01-02T17:07:58.409Z,7.37
2023-01-02T17:13:01.144Z,8.03
2023-01-02T17:18:03.747Z,7.94
2023-01-02T17:23:06.898Z,7.78
2023-01-02T17:28:09.696Z,7.34
2023-01-02T17:33:12.481Z,6.79
2023-01-02T17:38:15.038Z,6.51
2023-01-02T17:43:17.108Z,6.05
2023-01-02T17:48:24.230Z,6.08
2023-01-02T17:53:27.649Z,5.76
2023-01-02T17:58:30.250Z,5.71
2023-01-02T18:03:32.578Z,5.60
2023-01-02T18:08:34.845Z,5.43
2023-01-02T18:13:43.026Z,5.22
2023-01-02T18:18:46.093Z,5.32
2023-01-02T18:23:50.737Z,5.21
2023-01-02T18:29:09.038Z,5.15
2023-01-02T18:34:45.587Z,4.96
2023-01-02T18:39:42.914Z,4.80
2023-01-02T18:44:45.314Z,4.55
2023-01-02T18:49:47.457Z,4.45
2023-01-02T18:54:59.048Z,4.32
2023-01-02T19:00:16.144Z,4.02
2023-01-02T19:05:28.989Z,4.16
2023-01-02T19:10:40.216Z,4.26
2023-01-02T19:15:45.258Z,4.17
2023-01-02T19:20:53.362Z,4.11
2023-01-02T19:25:58.266Z,3.99
2023-01-02T19:31:00.654Z,3.73
2023-01-02T19:36:04.558Z,3.52
2023-01-02T19:41:07.101Z,3.50
2023-01-02T19:46:09.533Z,3.73
2023-01-02T19:51:11.699Z,3.56
2023-01-02T19:56:15.341Z,3.55
2023-01-02T20:01:17.705Z,3.23
2023-01-02T20:06:20.171Z,3.34
2023-01-02T20:11:42.383Z,3.25
2023-01-02T20:16:44.695Z,2.93
2023-01-02T20:21:46.781Z,3.00
2023-01-02T20:26:48.843Z,2.91
2023-01-02T20:31:54.433Z,3.07
2023-01-02T20:36:56.778Z,3.01
2023-01-02T20:41:59.159Z,2.97
2023-01-02T20:47:02.025Z,2.98
2023-01-02T20:52:05.089Z,2.91
2023-01-02T20:57:07.302Z,2.68
2023-01-02T21:02:09.685Z,2.63
2023-01-02T21:07:12.201Z,2.67
2023-01-02T21:12:32.746Z,2.59
2023-01-02T21:17:34.820Z,2.56
2023-01-02T21:22:37.022Z,2.73
2023-01-02T21:27:39.189Z,2.69
2023-01-02T21:32:41.448Z,2.58
2023-01-02T21:37:43.591Z,2.48
2023-01-02T21:42:45.720Z,2.19
2023-01-02T21:47:48.485Z,2.34
2023-01-02T21:52:51.729Z,2.27
2023-01-02T22:03:17.148Z,2.12
2023-01-02T22:08:19.611Z,2.16
2023-01-02T22:13:21.884Z,2.29
2023-01-02T22:18:24.046Z,2.31
2023-01-02T22:23:26.137Z,2.20
2023-01-02T22:28:28.651Z,2.34
2023-01-02T22:33:30.790Z,2.24
2023-01-02T22:38:32.916Z,2.42
2023-01-02T22:43:39.184Z,2.33
2023-01-02T22:48:42.739Z,2.04
2023-01-02T22:53:45.193Z,2.09
2023-01-02T22:58:49.021Z,2.17
2023-01-02T23:03:51.268Z,1.94
2023-01-02T23:08:55.160Z,2.26
2023-01-02T23:13:57.266Z,2.12
2023-01-02T23:19:15.292Z,2.15
2023-01-02T23:24:20.641Z,2.18
2023-01-02T23:29:24.410Z,2.12
2023-01-02T23:34:28.407Z,2.18
2023-01-02T23:39:32.327Z,1.82
2023-01-02T23:44:35.452Z,1.81
2023-01-02T23:49:37.633Z,1.87
2023-01-02T23:54:39.929Z,1.99
2023-01-02T23:59:42.545Z,1.95
